createdAt,value
2022-08-11T00:01:54.344Z,1.73
2022-08-11T00:04:28.647Z,1.02
2022-08-11T00:06:57.045Z,1.50
2022-08-11T00:09:39.355Z,1.40
2022-08-11T00:12:18.282Z,1.88
2022-08-11T00:14:46.940Z,1.52
2022-08-11T00:17:16.521Z,1.02
2022-08-11T00:20:14.779Z,1.30
2022-08-11T00:22:41.925Z,0.93
2022-08-11T00:25:20.820Z,1.20
2022-08-11T00:27:49.496Z,1.10
2022-08-11T00:30:17.239Z,1.40
2022-08-11T00:32:54.891Z,1.30
2022-08-11T00:35:50.977Z,1.40
2022-08-11T00:38:15.680Z,1.38
2022-08-11T00:41:07.233Z,1.20
2022-08-11T00:44:01.049Z,1.13
2022-08-11T00:47:05.946Z,1.15
2022-08-11T00:49:58.287Z,1.25
2022-08-11T00:52:40.753Z,1.42
2022-08-11T00:55:34.140Z,1.55
2022-08-11T00:58:21.853Z,1.40
2022-08-11T01:01:10.563Z,1.10
2022-08-11T01:04:09.260Z,1.20
2022-08-11T01:07:06.206Z,2.72
2022-08-11T01:10:03.789Z,1.38
2022-08-11T01:12:53.386Z,1.30
2022-08-11T01:15:23.900Z,1.73
2022-08-11T01:18:10.073Z,1.10
2022-08-11T01:20:47.525Z,2.63
2022-08-11T01:23:40.556Z,1.25
2022-08-11T01:26:46.372Z,1.00
2022-08-11T01:29:52.825Z,0.95
2022-08-11T01:32:37.145Z,1.30
2022-08-11T01:35:42.490Z,1.00
2022-08-11T01:38:38.465Z,1.15
2022-08-11T01:41:26.372Z,1.10
2022-08-11T01:44:30.401Z,1.00
2022-08-11T01:47:33.327Z,1.60
2022-08-11T01:50:16.679Z,1.30
2022-08-11T01:53:10.054Z,1.40
2022-08-11T01:55:58.055Z,1.05
2022-08-11T01:58:43.289Z,1.10
2022-08-11T02:01:20.825Z,0.93
2022-08-11T02:03:58.743Z,0.90
2022-08-11T02:06:57.248Z,1.10
2022-08-11T02:10:22.335Z,1.27
2022-08-11T02:13:17.159Z,1.10
2022-08-11T02:16:05.662Z,0.93
2022-08-11T02:18:55.524Z,1.13
2022-08-11T02:22:15.154Z,1.00
2022-08-11T02:25:07.442Z,1.65
2022-08-11T02:27:44.771Z,1.10
2022-08-11T02:30:16.703Z,1.10
2022-08-11T02:33:24.313Z,1.40
2022-08-11T02:36:21.624Z,1.27
2022-08-11T02:38:51.946Z,1.23
2022-08-11T02:41:48.881Z,1.50
2022-08-11T02:44:31.318Z,0.75
2022-08-11T02:47:18.090Z,1.05
2022-08-11T02:50:02.556Z,1.00
2022-08-11T02:52:52.182Z,1.05
2022-08-11T02:55:57.480Z,1.30
2022-08-11T02:59:09.182Z,1.10
2022-08-11T03:01:49.439Z,1.02
2022-08-11T03:04:45.983Z,1.23
2022-08-11T03:07:28.184Z,1.10
2022-08-11T03:10:29.162Z,1.40
2022-08-11T03:13:38.201Z,1.13
2022-08-11T03:16:36.266Z,1.27
2022-08-11T03:22:02.418Z,1.73
2022-08-11T03:24:46.635Z,1.40
2022-08-11T03:27:58.140Z,1.30
2022-08-11T03:30:57.081Z,1.20
2022-08-11T03:33:50.906Z,1.17
2022-08-11T03:37:14.882Z,1.38
2022-08-11T03:40:00.347Z,1.20
2022-08-11T03:42:44.397Z,1.67
2022-08-11T03:45:29.943Z,1.40
2022-08-11T03:48:03.299Z,1.20
2022-08-11T03:51:02.006Z,1.65
2022-08-11T03:53:41.338Z,1.42
2022-08-11T03:56:14.365Z,1.20
2022-08-11T03:59:26.578Z,1.60
2022-08-11T04:02:06.219Z,1.52
2022-08-11T04:04:52.370Z,1.40
2022-08-11T04:07:44.526Z,1.48
2022-08-11T04:10:23.941Z,1.60
2022-08-11T04:13:17.667Z,2.63
2022-08-11T04:16:14.412Z,2.47
2022-08-11T04:19:03.753Z,1.98
2022-08-11T04:21:37.083Z,2.38
2022-08-11T04:25:01.585Z,1.98
2022-08-11T04:27:39.634Z,1.85
2022-08-11T04:30:26.824Z,1.95
2022-08-11T04:33:35.375Z,3.40
2022-08-11T04:37:01.464Z,2.10
2022-08-11T04:40:15.510Z,2.35
2022-08-11T04:43:13.410Z,2.40
2022-08-11T04:46:08.631Z,1.80
2022-08-11T04:49:33.819Z,2.10
2022-08-11T04:52:55.396Z,2.30
2022-08-11T04:56:03.006Z,2.42
2022-08-11T04:59:15.047Z,1.52
2022-08-11T05:01:51.279Z,1.85
2022-08-11T05:05:01.906Z,2.03
2022-08-11T05:07:48.538Z,1.80
2022-08-11T05:10:42.952Z,2.88
2022-08-11T05:13:31.284Z,2.17
2022-08-11T05:16:27.401Z,2.05
2022-08-11T05:19:16.180Z,1.83
2022-08-11T05:22:11.669Z,2.03
2022-08-11T05:25:08.791Z,1.98
2022-08-11T05:28:04.072Z,2.20
2022-08-11T05:30:50.981Z,2.42
2022-08-11T05:33:43.977Z,2.00
2022-08-11T05:36:39.072Z,1.83
2022-08-11T05:39:36.704Z,1.98
2022-08-11T05:42:30.185Z,1.83
2022-08-11T05:45:57.388Z,1.60
2022-08-11T05:48:39.056Z,1.90
2022-08-11T05:51:30.225Z,6.82
2022-08-11T05:54:29.095Z,1.95
2022-08-11T05:57:00.261Z,1.70
2022-08-11T05:59:28.897Z,1.50
2022-08-11T06:02:02.960Z,1.50
2022-08-11T06:04:31.657Z,1.85
2022-08-11T06:07:00.798Z,2.25
2022-08-11T06:09:31.111Z,1.80
2022-08-11T06:12:03.683Z,1.60
2022-08-11T06:14:33.479Z,3.00
2022-08-11T06:17:06.724Z,2.38
2022-08-11T06:19:38.627Z,1.80
2022-08-11T06:22:08.703Z,1.42
2022-08-11T06:24:40.315Z,3.35
2022-08-11T06:27:12.785Z,1.60
2022-08-11T06:29:55.343Z,1.67
2022-08-11T06:32:29.417Z,2.25
2022-08-11T06:35:02.734Z,1.92
2022-08-11T06:37:42.457Z,1.35
2022-08-11T06:40:31.810Z,1.70
2022-08-11T06:43:05.067Z,1.60
2022-08-11T06:46:03.398Z,1.50
2022-08-11T06:48:40.693Z,1.20
2022-08-11T06:51:14.256Z,2.40
2022-08-11T06:54:03.291Z,1.25
2022-08-11T07:00:03.393Z,3.95
2022-08-11T07:03:05.776Z,3.42
2022-08-11T07:05:54.235Z,2.05
2022-08-11T07:08:49.152Z,2.17
2022-08-11T07:11:53.972Z,1.30
2022-08-11T07:14:44.465Z,1.63
2022-08-11T07:17:26.859Z,1.38
2022-08-11T07:20:16.672Z,1.30
2022-08-11T07:23:11.277Z,1.05
2022-08-11T07:26:01.056Z,1.17
2022-08-11T07:28:50.085Z,2.22
2022-08-11T07:31:26.916Z,1.77
2022-08-11T07:34:07.673Z,1.40
2022-08-11T07:36:42.951Z,1.70
2022-08-11T07:39:19.089Z,2.05
2022-08-11T07:44:17.178Z,1.20
2022-08-11T07:47:23.284Z,1.50
2022-08-11T07:50:12.612Z,1.00
2022-08-11T07:52:43.992Z,1.05
2022-08-11T07:55:17.686Z,1.23
2022-08-11T07:58:16.477Z,1.30
2022-08-11T08:01:22.539Z,1.15
2022-08-11T08:04:10.210Z,1.45
2022-08-11T08:06:57.684Z,0.75
2022-08-11T08:09:44.640Z,1.10
2022-08-11T08:12:32.411Z,3.58
2022-08-11T08:15:25.117Z,1.58
2022-08-11T08:18:09.264Z,1.52
2022-08-11T08:20:52.106Z,1.75
2022-08-11T08:23:34.542Z,1.52
2022-08-11T08:26:04.776Z,1.40
2022-08-11T08:28:33.955Z,2.10
2022-08-11T08:31:02.325Z,1.67
2022-08-11T08:33:32.299Z,2.05
2022-08-11T08:36:17.316Z,1.48
2022-08-11T08:38:50.626Z,1.17
2022-08-11T08:41:32.541Z,1.20
2022-08-11T08:44:35.189Z,1.20
2022-08-11T08:46:58.165Z,0.80
2022-08-11T08:49:40.772Z,0.98
2022-08-11T08:52:30.812Z,1.13
2022-08-11T08:55:04.603Z,0.82
2022-08-11T08:57:39.789Z,1.00
2022-08-11T09:00:12.592Z,1.08
2022-08-11T09:02:45.439Z,1.10
2022-08-11T09:05:16.580Z,1.10
2022-08-11T09:07:47.789Z,0.98
2022-08-11T09:10:21.170Z,0.88
2022-08-11T09:12:50.507Z,0.80
2022-08-11T09:15:19.971Z,2.05
2022-08-11T09:17:51.840Z,1.00
2022-08-11T09:20:25.606Z,1.00
2022-08-11T09:24:07.386Z,1.17
2022-08-11T09:26:30.240Z,1.30
2022-08-11T09:29:00.522Z,0.90
2022-08-11T09:31:37.252Z,1.13
2022-08-11T09:34:08.281Z,1.17
2022-08-11T09:36:58.818Z,1.10
2022-08-11T09:39:47.890Z,1.38
2022-08-11T09:42:23.583Z,1.27
2022-08-11T09:44:53.917Z,1.23
2022-08-11T09:47:30.034Z,1.52
2022-08-11T09:50:02.691Z,1.00
2022-08-11T09:52:38.170Z,0.90
2022-08-11T09:55:11.309Z,1.10
2022-08-11T09:58:00.087Z,1.38
2022-08-11T10:00:40.848Z,0.80
2022-08-11T10:03:24.974Z,1.20
2022-08-11T10:06:17.605Z,1.20
2022-08-11T10:08:47.979Z,1.42
2022-08-11T10:11:18.958Z,1.45
2022-08-11T10:14:33.623Z,1.42
2022-08-11T10:16:54.407Z,1.33
2022-08-11T10:19:23.270Z,1.30
2022-08-11T10:22:12.707Z,1.10
2022-08-11T10:25:02.246Z,1.10
2022-08-11T10:27:43.144Z,1.98
2022-08-11T10:30:39.269Z,2.45
2022-08-11T10:33:37.926Z,1.20
2022-08-11T10:36:16.101Z,2.03
2022-08-11T10:38:52.506Z,1.63
2022-08-11T10:42:02.864Z,1.25
2022-08-11T10:44:36.065Z,1.48
2022-08-11T10:47:24.070Z,1.67
2022-08-11T10:50:11.758Z,1.40
2022-08-11T10:52:59.667Z,1.63
2022-08-11T10:55:48.881Z,1.13
2022-08-11T10:58:38.200Z,1.60
2022-08-11T11:01:06.145Z,1.90
2022-08-11T11:03:35.801Z,1.80
2022-08-11T11:06:29.273Z,1.50
2022-08-11T11:09:03.711Z,1.40
2022-08-11T11:11:56.247Z,1.40
2022-08-11T11:14:49.861Z,1.60
2022-08-11T11:17:53.825Z,1.40
2022-08-11T11:20:34.603Z,1.20
2022-08-11T11:23:26.613Z,1.55
2022-08-11T11:26:27.463Z,0.90
2022-08-11T11:29:20.633Z,1.10
2022-08-11T11:32:25.607Z,1.00
2022-08-11T11:35:19.489Z,1.67
2022-08-11T11:38:03.756Z,2.35
2022-08-11T11:40:33.820Z,3.25
2022-08-11T11:43:02.566Z,2.10
2022-08-11T11:45:30.873Z,2.25
2022-08-11T11:48:00.468Z,1.90
2022-08-11T11:50:36.904Z,1.58
2022-08-11T11:53:07.074Z,1.33
2022-08-11T11:55:36.180Z,1.10
2022-08-11T11:58:23.615Z,1.20
2022-08-11T12:01:11.827Z,1.33
2022-08-11T12:03:41.158Z,1.77
2022-08-11T12:06:12.290Z,1.50
2022-08-11T12:08:41.107Z,1.77
2022-08-11T12:11:29.823Z,1.90
2022-08-11T12:14:02.506Z,2.10
2022-08-11T12:16:35.071Z,1.40
2022-08-11T12:19:07.884Z,1.30
2022-08-11T12:21:37.408Z,1.40
2022-08-11T12:24:28.559Z,1.88
2022-08-11T12:27:18.149Z,1.60
2022-08-11T12:29:54.367Z,2.10
2022-08-11T12:32:26.426Z,1.58
2022-08-11T12:35:15.409Z,1.80
2022-08-11T12:37:52.084Z,1.60
2022-08-11T12:41:11.601Z,2.45
2022-08-11T12:43:57.063Z,1.10
2022-08-11T12:46:32.086Z,1.40
2022-08-11T12:49:28.665Z,1.33
2022-08-11T12:52:11.159Z,1.60
2022-08-11T12:55:13.959Z,1.63
2022-08-11T12:58:07.086Z,2.10
2022-08-11T13:00:53.791Z,2.45
2022-08-11T13:03:41.207Z,2.03
2022-08-11T13:06:09.670Z,1.27
2022-08-11T13:08:40.826Z,2.80
2022-08-11T13:11:55.514Z,5.20
2022-08-11T13:14:17.466Z,2.28
2022-08-11T13:17:04.865Z,2.28
2022-08-11T13:19:34.704Z,2.63
2022-08-11T13:22:07.446Z,2.60
2022-08-11T13:24:39.830Z,3.53
2022-08-11T13:27:08.161Z,2.13
2022-08-11T13:29:36.470Z,2.60
2022-08-11T13:32:04.581Z,2.40
2022-08-11T13:34:32.843Z,1.60
2022-08-11T13:37:05.382Z,1.58
2022-08-11T13:39:34.992Z,1.90
2022-08-11T13:42:04.212Z,2.90
2022-08-11T13:44:36.040Z,1.80
2022-08-11T13:47:06.777Z,1.92
2022-08-11T13:49:39.831Z,1.38
2022-08-11T13:52:14.757Z,1.75
2022-08-11T13:54:43.826Z,2.00
2022-08-11T13:58:08.893Z,1.42
2022-08-11T14:00:22.544Z,1.48
2022-08-11T14:02:57.050Z,1.73
2022-08-11T14:05:47.671Z,3.10
2022-08-11T14:08:37.430Z,6.90
2022-08-11T14:12:21.590Z,3.40
2022-08-11T14:14:31.080Z,2.92
2022-08-11T14:17:09.074Z,1.98
2022-08-11T14:19:41.354Z,1.63
2022-08-11T14:22:12.358Z,2.10
2022-08-11T14:24:43.002Z,1.40
2022-08-11T14:28:29.786Z,1.77
2022-08-11T14:30:02.901Z,1.77
2022-08-11T14:32:33.863Z,1.73
2022-08-11T14:35:04.256Z,1.55
2022-08-11T14:37:31.916Z,1.50
2022-08-11T14:40:22.462Z,1.77
2022-08-11T14:43:08.518Z,1.45
2022-08-11T14:45:58.673Z,1.60
2022-08-11T14:48:27.139Z,1.30
2022-08-11T14:50:58.669Z,1.75
2022-08-11T14:53:26.558Z,2.05
2022-08-11T14:56:13.618Z,1.77
2022-08-11T14:58:43.524Z,1.60
2022-08-11T15:01:30.430Z,1.80
2022-08-11T15:04:27.336Z,2.88
2022-08-11T15:06:47.864Z,2.20
2022-08-11T15:09:16.840Z,1.70
2022-08-11T15:12:03.299Z,5.88
2022-08-11T15:14:49.992Z,2.88
2022-08-11T15:17:26.523Z,2.00
2022-08-11T15:20:35.528Z,3.20
2022-08-11T15:23:23.260Z,2.15
2022-08-11T15:25:55.575Z,1.70
2022-08-11T15:28:45.847Z,1.80
2022-08-11T15:31:34.627Z,2.90
2022-08-11T15:34:22.892Z,2.20
2022-08-11T15:37:13.845Z,14.88
2022-08-11T15:40:37.519Z,12.07
2022-08-11T15:43:30.401Z,6.85
2022-08-11T15:46:02.586Z,3.47
2022-08-11T15:48:33.076Z,6.95
2022-08-11T15:51:11.360Z,4.47
2022-08-11T15:53:57.149Z,2.28
2022-08-11T15:56:32.279Z,3.10
2022-08-11T15:59:42.809Z,2.10
2022-08-11T16:02:32.300Z,1.40
2022-08-11T16:05:02.397Z,2.35
2022-08-11T16:07:39.113Z,1.73
2022-08-11T16:10:21.439Z,2.10
2022-08-11T16:13:06.781Z,2.20
2022-08-11T16:15:59.283Z,2.03
2022-08-11T16:18:41.041Z,1.30
2022-08-11T16:21:26.769Z,1.88
2022-08-11T16:24:02.068Z,1.63
2022-08-11T16:27:07.585Z,1.90
2022-08-11T16:29:21.894Z,2.05
2022-08-11T16:32:11.667Z,1.90
2022-08-11T16:34:59.469Z,1.63
2022-08-11T16:37:47.753Z,1.80
2022-08-11T16:40:16.250Z,1.30
2022-08-11T16:43:10.325Z,2.10
2022-08-11T16:45:59.444Z,1.67
2022-08-11T16:48:39.122Z,6.68
2022-08-11T16:51:10.297Z,8.23
2022-08-11T16:53:59.664Z,5.97
2022-08-11T16:56:32.984Z,7.18
2022-08-11T16:59:16.241Z,3.05
2022-08-11T17:01:57.121Z,3.92
2022-08-11T17:04:58.315Z,7.65
2022-08-11T17:07:48.369Z,3.30
2022-08-11T17:10:52.716Z,3.05
2022-08-11T17:13:29.422Z,3.22
2022-08-11T17:16:07.573Z,2.20
2022-08-11T17:18:41.441Z,3.47
2022-08-11T17:22:04.916Z,2.42
2022-08-11T17:24:40.605Z,2.03
2022-08-11T17:27:09.418Z,4.07
2022-08-11T17:29:55.076Z,3.00
2022-08-11T17:32:56.140Z,2.85
2022-08-11T17:35:33.026Z,2.40
2022-08-11T17:38:14.446Z,4.75
2022-08-11T17:41:04.700Z,3.70
2022-08-11T17:43:52.133Z,3.83
2022-08-11T17:46:38.768Z,4.50
2022-08-11T17:49:08.662Z,2.95
2022-08-11T17:51:57.407Z,4.28
2022-08-11T17:54:45.085Z,3.30
2022-08-11T17:57:33.968Z,2.80
2022-08-11T18:00:03.920Z,2.10
2022-08-11T18:03:07.411Z,2.90
2022-08-11T18:05:37.946Z,2.28
2022-08-11T18:08:27.719Z,2.35
2022-08-11T18:12:00.070Z,2.85
2022-08-11T18:14:27.671Z,2.40
2022-08-11T18:17:13.742Z,2.60
2022-08-11T18:20:02.461Z,3.08
2022-08-11T18:23:01.917Z,2.40
2022-08-11T18:25:59.467Z,2.72
2022-08-11T18:28:51.319Z,2.50
2022-08-11T18:31:40.177Z,12.60
2022-08-11T18:34:32.351Z,3.22
2022-08-11T18:37:29.081Z,5.53
2022-08-11T18:40:20.819Z,3.80
2022-08-11T18:43:08.761Z,2.83
2022-08-11T18:46:06.700Z,3.13
2022-08-11T18:49:00.532Z,2.63
2022-08-11T18:51:47.340Z,2.67
2022-08-11T18:54:34.673Z,3.70
2022-08-11T18:57:25.372Z,2.70
2022-08-11T19:00:14.097Z,2.72
2022-08-11T19:03:04.460Z,2.30
2022-08-11T19:06:32.026Z,2.70
2022-08-11T19:09:05.678Z,2.90
2022-08-11T19:11:53.470Z,2.03
2022-08-11T19:14:41.568Z,2.40
2022-08-11T19:17:44.713Z,2.35
2022-08-11T19:20:35.439Z,2.35
2022-08-11T19:23:24.877Z,3.17
2022-08-11T19:26:12.396Z,2.63
2022-08-11T19:29:01.465Z,2.50
2022-08-11T19:31:48.527Z,2.88
2022-08-11T19:34:37.704Z,2.53
2022-08-11T19:37:26.085Z,3.03
2022-08-11T19:40:17.293Z,2.63
2022-08-11T19:43:18.760Z,2.97
2022-08-11T19:46:13.485Z,2.75
2022-08-11T19:49:01.878Z,2.58
2022-08-11T19:51:54.148Z,2.78
2022-08-11T19:54:50.517Z,3.13
2022-08-11T19:57:40.184Z,3.75
2022-08-11T20:00:33.941Z,4.00
2022-08-11T20:03:27.377Z,4.57
2022-08-11T20:06:17.293Z,5.20
2022-08-11T20:09:05.613Z,6.40
2022-08-11T20:11:57.281Z,6.43
2022-08-11T20:14:46.486Z,6.57
2022-08-11T20:17:33.851Z,5.75
2022-08-11T20:23:14.121Z,4.82
2022-08-11T20:26:14.160Z,4.22
2022-08-11T20:29:10.649Z,4.78
2022-08-11T20:31:58.141Z,4.38
2022-08-11T20:34:44.888Z,3.97
2022-08-11T20:37:32.543Z,5.45
2022-08-11T20:40:23.717Z,4.18
2022-08-11T20:44:05.498Z,3.70
2022-08-11T20:46:17.810Z,2.92
2022-08-11T20:49:08.081Z,3.63
2022-08-11T20:51:56.026Z,4.10
2022-08-11T20:54:45.850Z,3.70
2022-08-11T20:57:59.573Z,3.50
2022-08-11T21:03:36.224Z,3.13
2022-08-11T21:06:26.297Z,2.83
2022-08-11T21:09:23.884Z,3.03
2022-08-11T21:12:31.497Z,2.95
2022-08-11T21:15:39.019Z,2.97
2022-08-11T21:18:29.466Z,2.90
2022-08-11T21:21:19.349Z,2.97
2022-08-11T21:24:09.859Z,2.97
2022-08-11T21:27:03.428Z,2.88
2022-08-11T21:29:53.210Z,2.95
2022-08-11T21:32:40.705Z,2.90
2022-08-11T21:35:28.534Z,2.97
2022-08-11T21:38:17.466Z,3.08
2022-08-11T21:41:05.816Z,2.85
2022-08-11T21:43:53.228Z,2.85
2022-08-11T21:49:30.083Z,3.45
2022-08-11T21:52:16.198Z,3.85
2022-08-11T21:55:02.986Z,4.13
2022-08-11T21:57:50.711Z,3.30
2022-08-11T22:00:39.731Z,3.13
2022-08-11T22:03:25.795Z,2.55
2022-08-11T22:06:13.814Z,3.15
2022-08-11T22:09:01.084Z,2.72
2022-08-11T22:11:47.368Z,2.40
2022-08-11T22:14:33.591Z,2.72
2022-08-11T22:17:19.597Z,2.47
2022-08-11T22:20:06.020Z,2.25
2022-08-11T22:22:53.871Z,2.37
2022-08-11T22:25:50.719Z,3.05
2022-08-11T22:28:38.329Z,2.10
2022-08-11T22:31:26.990Z,2.80
2022-08-11T22:34:13.751Z,2.17
2022-08-11T22:37:02.104Z,2.80
2022-08-11T22:39:59.666Z,2.58
2022-08-11T22:42:50.810Z,2.85
2022-08-11T22:45:37.820Z,3.03
2022-08-11T22:48:25.016Z,2.90
2022-08-11T22:51:13.529Z,3.47
2022-08-11T22:54:00.196Z,3.33
2022-08-11T22:56:50.583Z,3.47
2022-08-11T22:59:38.084Z,3.20
2022-08-11T23:05:12.306Z,3.20
2022-08-11T23:08:00.435Z,2.85
2022-08-11T23:10:47.298Z,3.00
2022-08-11T23:13:34.576Z,2.40
2022-08-11T23:16:21.337Z,3.10
2022-08-11T23:19:07.503Z,2.90
2022-08-11T23:21:54.655Z,2.97
2022-08-11T23:24:43.230Z,2.95
2022-08-11T23:27:30.302Z,3.20
2022-08-11T23:30:19.236Z,2.90
2022-08-11T23:33:09.725Z,3.60
2022-08-11T23:36:04.428Z,2.78
2022-08-11T23:38:51.797Z,3.00
2022-08-11T23:41:38.801Z,2.75
2022-08-11T23:44:27.192Z,2.92
2022-08-11T23:47:18.485Z,2.90
2022-08-11T23:50:06.112Z,2.90
2022-08-11T23:52:54.868Z,3.28
2022-08-11T23:55:40.814Z,2.90
2022-08-11T23:58:28.028Z,2.65
